createdAt,value
2023-01-31T00:01:29.201Z,101395.44
2023-01-31T00:03:58.889Z,101401.13
2023-01-31T00:06:29.854Z,101406.75
2023-01-31T00:08:57.485Z,101406.25
2023-01-31T00:11:26.011Z,101410.66
2023-01-31T00:13:53.607Z,101394.06
2023-01-31T00:16:21.455Z,101387.72
2023-01-31T00:18:48.492Z,101385.09
2023-01-31T00:21:21.497Z,101394.13
2023-01-31T00:23:49.194Z,101391.16
2023-01-31T00:26:18.717Z,101384.78
2023-01-31T00:28:47.346Z,101382.16
2023-01-31T00:31:15.729Z,101386.59
2023-01-31T00:33:44.502Z,101384.78
2023-01-31T00:36:16.741Z,101385.97
2023-01-31T00:38:44.667Z,101389.00
2023-01-31T00:41:12.134Z,101382.28
2023-01-31T00:43:38.706Z,101383.63
2023-01-31T00:46:06.146Z,101381.38
2023-01-31T00:48:33.218Z,101378.56
2023-01-31T00:51:00.066Z,101378.63
2023-01-31T00:53:26.753Z,101379.00
2023-01-31T00:55:55.863Z,101377.78
2023-01-31T00:58:22.546Z,101383.13
2023-01-31T01:00:49.196Z,101387.72
2023-01-31T01:03:15.831Z,101390.56
2023-01-31T01:05:42.435Z,101387.56
2023-01-31T01:08:09.610Z,101397.75
2023-01-31T01:10:36.569Z,101396.25
2023-01-31T01:13:05.576Z,101402.72
2023-01-31T01:15:32.957Z,101402.91
2023-01-31T01:17:59.434Z,101400.06
2023-01-31T01:20:25.994Z,101402.41
2023-01-31T01:22:52.590Z,101392.25
2023-01-31T01:25:19.429Z,101385.03
2023-01-31T01:27:46.193Z,101390.28
2023-01-31T01:30:13.003Z,101398.28
2023-01-31T01:32:39.566Z,101397.09
2023-01-31T01:35:06.671Z,101407.03
2023-01-31T01:37:33.926Z,101410.38
2023-01-31T01:40:00.539Z,101409.44
2023-01-31T01:42:27.775Z,101403.41
2023-01-31T01:45:03.780Z,101392.91
2023-01-31T01:47:47.868Z,101392.41
2023-01-31T01:50:25.501Z,101391.94
2023-01-31T01:52:56.377Z,101401.91
2023-01-31T01:55:32.991Z,101401.09
2023-01-31T01:58:06.198Z,101406.06
2023-01-31T02:00:35.093Z,101409.25
2023-01-31T02:03:04.307Z,101405.56
2023-01-31T02:05:40.244Z,101415.47
2023-01-31T02:08:06.823Z,101420.72
2023-01-31T02:10:46.885Z,101416.56
2023-01-31T02:13:14.405Z,101408.38
2023-01-31T02:15:40.914Z,101405.91
2023-01-31T02:18:08.696Z,101401.38
2023-01-31T02:20:53.729Z,101405.94
2023-01-31T02:23:26.345Z,101409.56
2023-01-31T02:25:55.916Z,101404.09
2023-01-31T02:28:23.010Z,101402.28
2023-01-31T02:31:04.828Z,101406.25
2023-01-31T02:33:57.116Z,101409.09
2023-01-31T02:37:00.817Z,101405.81
2023-01-31T02:39:41.047Z,101405.28
2023-01-31T02:42:28.049Z,101399.44
2023-01-31T02:45:11.404Z,101399.00
2023-01-31T02:47:40.934Z,101400.09
2023-01-31T02:50:32.211Z,101408.53
2023-01-31T02:53:11.370Z,101410.84
2023-01-31T02:56:17.948Z,101409.03
2023-01-31T02:58:55.077Z,101415.53
2023-01-31T03:01:27.835Z,101416.09
2023-01-31T03:03:58.539Z,101412.13
2023-01-31T03:06:25.373Z,101418.03
2023-01-31T03:09:21.995Z,101426.59
2023-01-31T03:11:53.457Z,101439.41
2023-01-31T03:14:41.778Z,101446.72
2023-01-31T03:17:48.941Z,101452.34
2023-01-31T03:20:29.252Z,101460.75
2023-01-31T03:23:02.123Z,101468.56
2023-01-31T03:25:32.741Z,101455.31
2023-01-31T03:28:06.286Z,101454.59
2023-01-31T03:30:38.355Z,101461.25
2023-01-31T03:33:17.474Z,101458.72
2023-01-31T03:35:49.002Z,101461.47
2023-01-31T03:38:20.762Z,101458.19
2023-01-31T03:41:01.559Z,101457.53
2023-01-31T03:43:37.446Z,101465.38
2023-01-31T03:46:11.634Z,101467.84
2023-01-31T03:48:42.549Z,101470.13
2023-01-31T03:51:14.377Z,101460.47
2023-01-31T03:53:52.540Z,101462.16
2023-01-31T03:56:50.320Z,101463.84
2023-01-31T03:59:22.858Z,101457.16
2023-01-31T04:01:53.574Z,101457.06
2023-01-31T04:04:32.754Z,101464.25
2023-01-31T04:07:00.861Z,101463.94
2023-01-31T04:09:27.646Z,101466.59
2023-01-31T04:11:54.183Z,101468.97
2023-01-31T04:14:20.789Z,101475.47
2023-01-31T04:16:47.648Z,101475.06
2023-01-31T04:19:14.202Z,101468.66
2023-01-31T04:21:40.671Z,101478.09
2023-01-31T04:24:09.439Z,101464.69
2023-01-31T04:26:36.876Z,101459.44
2023-01-31T04:29:04.204Z,101446.09
2023-01-31T04:31:31.203Z,101455.38
2023-01-31T04:33:58.205Z,101441.25
2023-01-31T04:36:25.640Z,101439.53
2023-01-31T04:38:52.191Z,101447.19
2023-01-31T04:41:19.212Z,101438.50
2023-01-31T04:43:45.788Z,101430.03
2023-01-31T04:46:12.299Z,101427.22
2023-01-31T04:48:40.378Z,101419.56
2023-01-31T04:51:07.633Z,101412.09
2023-01-31T04:53:34.251Z,101413.88
2023-01-31T04:56:00.768Z,101415.69
2023-01-31T04:58:27.245Z,101417.03
2023-01-31T05:00:54.574Z,101420.97
2023-01-31T05:03:21.173Z,101412.81
2023-01-31T05:05:49.010Z,101420.75
2023-01-31T05:08:15.549Z,101428.63
2023-01-31T05:10:43.031Z,101413.97
2023-01-31T05:13:10.575Z,101418.06
2023-01-31T05:15:38.277Z,101417.56
2023-01-31T05:18:05.908Z,101414.72
2023-01-31T05:20:36.587Z,101418.69
2023-01-31T05:23:03.756Z,101414.03
2023-01-31T05:25:31.651Z,101414.06
2023-01-31T05:27:58.293Z,101404.59
2023-01-31T05:30:25.161Z,101414.25
2023-01-31T05:32:52.022Z,101421.22
2023-01-31T05:35:19.458Z,101413.00
2023-01-31T05:37:46.493Z,101410.44
2023-01-31T05:40:15.414Z,101405.75
2023-01-31T05:42:42.120Z,101420.75
2023-01-31T05:45:11.765Z,101414.41
2023-01-31T05:47:38.438Z,101418.38
2023-01-31T05:50:05.452Z,101411.00
2023-01-31T05:52:32.459Z,101409.16
2023-01-31T05:54:59.065Z,101412.56
2023-01-31T05:57:25.608Z,101409.13
2023-01-31T05:59:52.236Z,101404.44
2023-01-31T06:02:18.801Z,101394.44
2023-01-31T06:04:45.390Z,101392.34
2023-01-31T06:07:11.885Z,101395.22
2023-01-31T06:09:40.500Z,101395.75
2023-01-31T06:12:07.250Z,101400.50
2023-01-31T06:14:33.875Z,101397.34
2023-01-31T06:17:00.655Z,101400.22
2023-01-31T06:19:27.288Z,101404.16
2023-01-31T06:21:53.948Z,101409.34
2023-01-31T06:24:21.177Z,101403.13
2023-01-31T06:26:47.695Z,101403.09
2023-01-31T06:29:14.815Z,101408.25
2023-01-31T06:31:45.465Z,101413.56
2023-01-31T06:34:12.237Z,101410.41
2023-01-31T06:36:38.872Z,101407.25
2023-01-31T06:39:05.819Z,101415.19
2023-01-31T06:41:32.940Z,101411.50
2023-01-31T06:43:59.716Z,101414.06
2023-01-31T06:46:26.383Z,101418.78
2023-01-31T06:48:53.066Z,101422.69
2023-01-31T06:51:20.746Z,101426.03
2023-01-31T06:53:47.478Z,101421.59
2023-01-31T06:56:14.251Z,101417.09
2023-01-31T06:58:41.770Z,101413.53
2023-01-31T07:01:14.058Z,101421.47
2023-01-31T07:03:41.636Z,101422.25
2023-01-31T07:06:09.692Z,101422.88
2023-01-31T07:08:37.834Z,101429.94
2023-01-31T07:11:05.043Z,101424.19
2023-01-31T07:13:32.419Z,101431.81
2023-01-31T07:15:59.254Z,101435.47
2023-01-31T07:18:25.921Z,101430.13
2023-01-31T07:20:52.716Z,101422.13
2023-01-31T07:23:19.185Z,101425.59
2023-01-31T07:25:45.989Z,101438.19
2023-01-31T07:28:13.022Z,101437.66
2023-01-31T07:30:40.268Z,101435.22
2023-01-31T07:33:06.880Z,101436.09
2023-01-31T07:35:33.493Z,101439.41
2023-01-31T07:38:00.008Z,101439.84
2023-01-31T07:40:26.489Z,101438.25
2023-01-31T07:42:59.009Z,101438.94
2023-01-31T07:45:25.808Z,101444.34
2023-01-31T07:47:52.560Z,101435.69
2023-01-31T07:50:19.451Z,101432.88
2023-01-31T07:52:46.091Z,101439.69
2023-01-31T07:55:12.630Z,101443.00
2023-01-31T07:57:39.200Z,101449.28
2023-01-31T08:00:26.450Z,101452.94
2023-01-31T08:03:11.580Z,101443.81
2023-01-31T08:05:38.165Z,101443.81
2023-01-31T08:08:10.749Z,101441.03
2023-01-31T08:10:37.664Z,101442.19
2023-01-31T08:13:06.251Z,101446.91
2023-01-31T08:15:33.951Z,101450.97
2023-01-31T08:18:00.790Z,101447.56
2023-01-31T08:20:27.568Z,101448.38
2023-01-31T08:22:54.116Z,101450.16
2023-01-31T08:25:22.006Z,101449.53
2023-01-31T08:27:48.894Z,101456.97
2023-01-31T08:30:15.600Z,101457.78
2023-01-31T08:32:42.359Z,101467.84
2023-01-31T08:35:09.229Z,101472.75
2023-01-31T08:37:35.771Z,101460.72
2023-01-31T08:40:02.289Z,101464.38
2023-01-31T08:42:29.356Z,101455.94
2023-01-31T08:44:56.008Z,101454.97
2023-01-31T08:47:22.597Z,101460.75
2023-01-31T08:49:49.174Z,101460.72
2023-01-31T08:52:15.694Z,101469.75
2023-01-31T08:54:42.198Z,101460.19
2023-01-31T08:57:08.955Z,101464.03
2023-01-31T08:59:35.842Z,101466.50
2023-01-31T09:02:02.860Z,101468.94
2023-01-31T09:04:30.009Z,101465.28
2023-01-31T09:06:57.123Z,101468.22
2023-01-31T09:09:26.306Z,101483.84
2023-01-31T09:11:53.053Z,101469.06
2023-01-31T09:14:19.693Z,101459.38
2023-01-31T09:16:46.738Z,101462.19
2023-01-31T09:19:13.644Z,101463.59
2023-01-31T09:21:40.219Z,101464.41
2023-01-31T09:24:06.973Z,101475.31
2023-01-31T09:26:33.657Z,101477.38
2023-01-31T09:29:01.493Z,101459.25
2023-01-31T09:31:28.703Z,101455.94
2023-01-31T09:33:55.456Z,101449.72
2023-01-31T09:36:23.981Z,101450.06
2023-01-31T09:38:55.475Z,101459.09
2023-01-31T09:41:32.121Z,101463.28
2023-01-31T09:44:06.507Z,101474.53
2023-01-31T09:46:38.240Z,101464.16
2023-01-31T09:49:10.795Z,101456.09
2023-01-31T09:51:38.961Z,101451.72
2023-01-31T09:54:09.758Z,101442.81
2023-01-31T09:56:45.654Z,101447.53
2023-01-31T09:59:29.505Z,101432.03
2023-01-31T10:02:23.977Z,101414.19
2023-01-31T10:05:08.922Z,101429.22
2023-01-31T10:07:56.795Z,101430.22
2023-01-31T10:10:41.311Z,101424.97
2023-01-31T10:13:35.446Z,101429.84
2023-01-31T10:16:23.553Z,101424.72
2023-01-31T10:18:55.175Z,101422.59
2023-01-31T10:21:26.532Z,101429.69
2023-01-31T10:24:00.225Z,101429.75
2023-01-31T10:26:39.520Z,101420.41
2023-01-31T10:29:36.359Z,101404.00
2023-01-31T10:32:16.053Z,101401.84
2023-01-31T10:34:48.052Z,101402.53
2023-01-31T10:37:20.005Z,101398.69
2023-01-31T10:39:53.493Z,101379.84
2023-01-31T10:42:39.147Z,101379.00
2023-01-31T10:45:08.724Z,101389.06
2023-01-31T10:47:49.284Z,101384.16
2023-01-31T10:50:40.383Z,101366.03
2023-01-31T10:53:07.075Z,101368.88
2023-01-31T10:56:01.777Z,101354.34
2023-01-31T10:58:28.523Z,101364.69
2023-01-31T11:00:55.352Z,101357.88
2023-01-31T11:03:22.214Z,101348.91
2023-01-31T11:05:58.399Z,101332.16
2023-01-31T11:08:44.539Z,101344.09
2023-01-31T11:11:13.773Z,101337.38
2023-01-31T11:13:40.769Z,101345.75
2023-01-31T11:16:11.484Z,101328.50
2023-01-31T11:18:45.568Z,101320.19
2023-01-31T11:21:24.110Z,101313.88
2023-01-31T11:23:52.057Z,101313.56
2023-01-31T11:26:31.281Z,101304.66
2023-01-31T11:28:58.377Z,101297.78
2023-01-31T11:31:38.190Z,101305.44
2023-01-31T11:34:19.022Z,101311.25
2023-01-31T11:36:48.547Z,101305.34
2023-01-31T11:39:26.363Z,101300.94
2023-01-31T11:41:53.316Z,101287.50
2023-01-31T11:44:22.174Z,101282.00
2023-01-31T11:46:52.427Z,101273.22
2023-01-31T11:49:41.507Z,101280.72
2023-01-31T11:52:18.875Z,101276.44
2023-01-31T11:54:56.117Z,101267.75
2023-01-31T11:57:25.201Z,101263.19
2023-01-31T11:59:55.463Z,101260.97
2023-01-31T12:02:36.589Z,101253.22
2023-01-31T12:05:15.056Z,101247.78
2023-01-31T12:07:50.311Z,101250.47
2023-01-31T12:10:45.996Z,101255.06
2023-01-31T12:13:19.173Z,101252.41
2023-01-31T12:15:51.279Z,101259.22
2023-01-31T12:18:29.826Z,101236.47
2023-01-31T12:21:06.366Z,101218.34
2023-01-31T12:23:59.727Z,101212.16
2023-01-31T12:26:42.601Z,101195.25
2023-01-31T12:29:37.254Z,101201.59
2023-01-31T12:32:34.991Z,101194.53
2023-01-31T12:35:43.780Z,101195.81
2023-01-31T12:38:28.799Z,101185.84
2023-01-31T12:41:15.979Z,101192.28
2023-01-31T12:44:09.350Z,101194.13
2023-01-31T12:47:27.286Z,101186.91
2023-01-31T12:50:28.787Z,101165.31
2023-01-31T12:53:20.492Z,101176.56
2023-01-31T12:56:12.104Z,101160.34
2023-01-31T12:58:46.988Z,101157.25
2023-01-31T13:01:19.222Z,101165.59
2023-01-31T13:04:01.041Z,101149.09
2023-01-31T13:06:36.297Z,101142.06
2023-01-31T13:09:18.209Z,101142.25
2023-01-31T13:12:05.067Z,101135.06
2023-01-31T13:14:37.664Z,101112.53
2023-01-31T13:17:06.231Z,101116.66
2023-01-31T13:19:56.294Z,101130.47
2023-01-31T13:22:28.530Z,101111.56
2023-01-31T13:25:15.544Z,101101.44
2023-01-31T13:27:46.963Z,101103.00
2023-01-31T13:30:25.731Z,101107.00
2023-01-31T13:32:55.055Z,101109.94
2023-01-31T13:35:37.206Z,101101.34
2023-01-31T13:38:11.550Z,101101.16
2023-01-31T13:40:52.541Z,101103.41
2023-01-31T13:43:20.069Z,101103.69
2023-01-31T13:46:13.934Z,101108.47
2023-01-31T13:48:47.245Z,101114.03
2023-01-31T13:51:22.843Z,101118.28
2023-01-31T13:54:04.609Z,101110.75
2023-01-31T13:56:36.290Z,101100.59
2023-01-31T13:59:06.693Z,101116.75
2023-01-31T14:01:36.446Z,101110.13
2023-01-31T14:04:15.178Z,101109.25
2023-01-31T14:06:56.751Z,101114.31
2023-01-31T14:09:25.011Z,101105.84
2023-01-31T14:11:52.285Z,101110.06
2023-01-31T14:14:41.168Z,101098.41
2023-01-31T14:17:34.627Z,101105.34
2023-01-31T14:20:05.159Z,101101.81
2023-01-31T14:22:34.118Z,101094.44
2023-01-31T14:25:12.518Z,101099.19
2023-01-31T14:27:51.325Z,101108.66
2023-01-31T14:30:37.758Z,101108.75
2023-01-31T14:33:13.484Z,101108.75
2023-01-31T14:35:46.689Z,101119.63
2023-01-31T14:38:45.195Z,101122.31
2023-01-31T14:41:40.588Z,101101.41
2023-01-31T14:44:30.412Z,101104.19
2023-01-31T14:47:12.921Z,101114.56
2023-01-31T14:49:51.619Z,101107.31
2023-01-31T14:52:28.393Z,101119.44
2023-01-31T14:55:05.067Z,101115.56
2023-01-31T14:57:34.339Z,101122.56
2023-01-31T15:00:23.832Z,101107.66
2023-01-31T15:03:04.838Z,101107.94
2023-01-31T15:05:31.358Z,101111.44
2023-01-31T15:08:13.141Z,101120.34
2023-01-31T15:10:58.802Z,101104.72
2023-01-31T15:13:49.416Z,101100.53
2023-01-31T15:16:19.043Z,101104.53
2023-01-31T15:18:50.121Z,101101.22
2023-01-31T15:21:30.262Z,101104.09
2023-01-31T15:23:58.060Z,101089.84
2023-01-31T15:26:29.428Z,101103.53
2023-01-31T15:28:57.977Z,101105.41
2023-01-31T15:31:41.653Z,101102.50
2023-01-31T15:34:19.338Z,101098.22
2023-01-31T15:36:57.710Z,101097.75
2023-01-31T15:39:32.436Z,101100.69
2023-01-31T15:42:20.451Z,101096.09
2023-01-31T15:44:47.053Z,101090.25
2023-01-31T15:47:23.141Z,101076.06
2023-01-31T15:49:50.333Z,101100.97
2023-01-31T15:52:22.462Z,101091.91
2023-01-31T15:54:57.532Z,101092.78
2023-01-31T15:57:28.407Z,101090.78
2023-01-31T15:59:56.585Z,101090.22
2023-01-31T16:02:29.953Z,101081.66
2023-01-31T16:04:57.618Z,101089.66
2023-01-31T16:07:29.263Z,101084.09
2023-01-31T16:09:58.047Z,101087.50
2023-01-31T16:12:26.152Z,101105.25
2023-01-31T16:14:59.095Z,101097.19
2023-01-31T16:17:27.755Z,101098.53
2023-01-31T16:19:54.958Z,101090.63
2023-01-31T16:22:28.077Z,101100.59
2023-01-31T16:25:00.176Z,101097.47
2023-01-31T16:27:38.286Z,101103.53
2023-01-31T16:30:05.570Z,101118.69
2023-01-31T16:32:36.592Z,101115.88
2023-01-31T16:35:09.243Z,101110.41
2023-01-31T16:37:36.948Z,101112.28
2023-01-31T16:40:17.251Z,101110.72
2023-01-31T16:42:44.005Z,101106.22
2023-01-31T16:45:50.927Z,101106.16
2023-01-31T16:48:23.927Z,101104.00
2023-01-31T16:50:53.811Z,101116.84
2023-01-31T16:53:25.632Z,101115.19
2023-01-31T16:56:14.235Z,101110.72
2023-01-31T16:58:49.064Z,101116.84
2023-01-31T17:01:20.088Z,101113.06
2023-01-31T17:03:59.986Z,101108.22
2023-01-31T17:06:27.170Z,101094.63
2023-01-31T17:08:54.300Z,101096.69
2023-01-31T17:11:40.900Z,101099.94
2023-01-31T17:14:08.396Z,101105.06
2023-01-31T17:16:34.976Z,101114.03
2023-01-31T17:19:01.686Z,101106.53
2023-01-31T17:21:29.139Z,101107.69
2023-01-31T17:23:55.688Z,101113.44
2023-01-31T17:26:23.317Z,101122.09
2023-01-31T17:29:00.856Z,101117.16
2023-01-31T17:31:29.563Z,101119.47
2023-01-31T17:33:56.700Z,101111.13
2023-01-31T17:36:23.546Z,101120.16
2023-01-31T17:38:51.837Z,101115.97
2023-01-31T17:41:20.697Z,101108.22
2023-01-31T17:43:47.404Z,101109.44
2023-01-31T17:46:16.250Z,101106.31
2023-01-31T17:48:43.564Z,101114.63
2023-01-31T17:51:11.080Z,101112.34
2023-01-31T17:53:48.855Z,101110.91
2023-01-31T17:56:16.683Z,101112.25
2023-01-31T17:58:43.344Z,101121.63
2023-01-31T18:01:13.873Z,101114.63
2023-01-31T18:03:41.149Z,101112.47
2023-01-31T18:06:08.810Z,101114.81
2023-01-31T18:08:35.613Z,101108.19
2023-01-31T18:11:14.128Z,101107.94
2023-01-31T18:13:41.324Z,101097.53
2023-01-31T18:16:10.288Z,101102.50
2023-01-31T18:18:40.431Z,101089.25
2023-01-31T18:21:12.003Z,101109.13
2023-01-31T18:23:38.659Z,101105.97
2023-01-31T18:26:09.787Z,101112.06
2023-01-31T18:28:37.312Z,101108.59
2023-01-31T18:31:07.421Z,101104.38
2023-01-31T18:33:36.116Z,101114.78
2023-01-31T18:36:03.240Z,101110.13
2023-01-31T18:38:30.827Z,101101.91
2023-01-31T18:41:00.038Z,101108.75
2023-01-31T18:43:29.301Z,101101.91
2023-01-31T18:45:56.303Z,101099.16
2023-01-31T18:48:22.841Z,101102.72
2023-01-31T18:50:49.415Z,101107.78
2023-01-31T18:53:16.115Z,101117.31
2023-01-31T18:55:42.639Z,101118.03
2023-01-31T18:58:09.289Z,101125.59
2023-01-31T19:00:35.907Z,101107.94
2023-01-31T19:03:02.448Z,101119.06
2023-01-31T19:05:29.094Z,101109.34
2023-01-31T19:07:55.620Z,101123.56
2023-01-31T19:10:22.187Z,101126.16
2023-01-31T19:12:48.731Z,101119.00
2023-01-31T19:15:15.287Z,101109.03
2023-01-31T19:17:41.909Z,101116.94
2023-01-31T19:20:09.577Z,101116.94
2023-01-31T19:22:36.071Z,101119.06
2023-01-31T19:25:05.422Z,101122.88
2023-01-31T19:27:32.020Z,101123.03
2023-01-31T19:29:59.969Z,101116.78
2023-01-31T19:32:29.129Z,101120.94
2023-01-31T19:34:55.720Z,101116.59
2023-01-31T19:37:22.301Z,101120.81
2023-01-31T19:39:49.081Z,101123.34
2023-01-31T19:42:15.968Z,101117.50
2023-01-31T19:44:42.708Z,101116.19
2023-01-31T19:47:09.301Z,101104.09
2023-01-31T19:49:36.023Z,101100.72
2023-01-31T19:52:02.518Z,101104.38
2023-01-31T19:54:29.031Z,101101.59
2023-01-31T19:56:55.733Z,101106.03
2023-01-31T19:59:22.386Z,101116.66
2023-01-31T20:01:48.967Z,101106.09
2023-01-31T20:04:15.561Z,101107.53
2023-01-31T20:06:42.069Z,101108.47
2023-01-31T20:09:09.315Z,101100.72
2023-01-31T20:11:36.584Z,101104.69
2023-01-31T20:14:04.378Z,101105.56
2023-01-31T20:16:31.041Z,101107.06
2023-01-31T20:18:57.740Z,101110.31
2023-01-31T20:21:24.707Z,101106.38
2023-01-31T20:23:51.316Z,101103.25
2023-01-31T20:26:19.528Z,101101.81
2023-01-31T20:28:46.307Z,101102.63
2023-01-31T20:31:14.797Z,101103.84
2023-01-31T20:33:41.644Z,101100.47
2023-01-31T20:36:08.480Z,101101.81
2023-01-31T20:38:37.263Z,101096.63
2023-01-31T20:41:05.043Z,101102.06
2023-01-31T20:43:31.605Z,101095.50
2023-01-31T20:46:03.417Z,101103.38
2023-01-31T20:48:30.071Z,101109.63
2023-01-31T20:50:57.872Z,101105.63
2023-01-31T20:53:24.961Z,101110.38
2023-01-31T20:56:02.356Z,101121.31
2023-01-31T20:58:32.018Z,101119.00
2023-01-31T21:01:00.207Z,101133.56
2023-01-31T21:03:27.730Z,101132.47
2023-01-31T21:05:57.755Z,101143.03
2023-01-31T21:08:24.329Z,101140.59
2023-01-31T21:10:52.797Z,101140.09
2023-01-31T21:13:20.353Z,101141.75
2023-01-31T21:15:54.709Z,101155.19
2023-01-31T21:18:22.579Z,101158.59
2023-01-31T21:20:49.231Z,101151.44
2023-01-31T21:23:16.246Z,101152.56
2023-01-31T21:25:42.866Z,101140.78
2023-01-31T21:28:09.825Z,101143.72
2023-01-31T21:30:36.832Z,101143.34
2023-01-31T21:33:03.603Z,101136.06
2023-01-31T21:35:30.442Z,101133.84
2023-01-31T21:37:57.167Z,101128.56
2023-01-31T21:40:24.390Z,101120.41
2023-01-31T21:42:52.866Z,101113.97
2023-01-31T21:45:39.955Z,101120.41
2023-01-31T21:48:29.961Z,101118.41
2023-01-31T21:50:57.251Z,101121.16
2023-01-31T21:53:24.064Z,101119.03
2023-01-31T21:55:50.680Z,101109.66
2023-01-31T21:58:17.442Z,101112.56
2023-01-31T22:00:44.258Z,101114.91
2023-01-31T22:03:11.267Z,101113.00
2023-01-31T22:05:38.339Z,101114.16
2023-01-31T22:08:05.202Z,101122.00
2023-01-31T22:10:31.967Z,101113.22
2023-01-31T22:12:58.503Z,101104.81
2023-01-31T22:15:25.612Z,101105.16
2023-01-31T22:17:52.574Z,101097.41
2023-01-31T22:20:19.473Z,101094.28
2023-01-31T22:22:47.038Z,101090.00
2023-01-31T22:25:13.674Z,101085.66
2023-01-31T22:27:40.242Z,101092.47
2023-01-31T22:30:16.029Z,101090.09
2023-01-31T22:32:43.338Z,101085.03
2023-01-31T22:35:10.358Z,101072.91
2023-01-31T22:37:36.921Z,101076.25
2023-01-31T22:40:03.867Z,101071.22
2023-01-31T22:42:30.438Z,101065.34
2023-01-31T22:44:56.924Z,101066.09
2023-01-31T22:47:24.250Z,101070.81
2023-01-31T22:49:50.867Z,101062.66
2023-01-31T22:52:17.551Z,101056.28
2023-01-31T22:54:44.223Z,101060.25
2023-01-31T22:57:10.895Z,101062.97
2023-01-31T22:59:38.655Z,101064.38
2023-01-31T23:02:05.626Z,101074.03
2023-01-31T23:04:32.246Z,101064.66
2023-01-31T23:06:58.915Z,101068.44
2023-01-31T23:09:25.521Z,101069.44
2023-01-31T23:11:52.134Z,101061.47
2023-01-31T23:14:18.697Z,101056.13
2023-01-31T23:17:03.884Z,101056.22
2023-01-31T23:19:30.474Z,101042.63
2023-01-31T23:21:57.016Z,101039.69
2023-01-31T23:24:23.595Z,101035.03
2023-01-31T23:26:50.478Z,101040.69
2023-01-31T23:29:17.103Z,101038.03
2023-01-31T23:31:43.792Z,101042.25
2023-01-31T23:34:10.364Z,101047.88
2023-01-31T23:36:37.106Z,101044.88
2023-01-31T23:39:04.660Z,101035.47
2023-01-31T23:41:31.679Z,101035.59
2023-01-31T23:43:58.188Z,101037.78
2023-01-31T23:46:24.916Z,101036.88
2023-01-31T23:48:51.412Z,101038.03
2023-01-31T23:51:17.902Z,101035.44
2023-01-31T23:53:44.471Z,101022.97
2023-01-31T23:56:11.017Z,101031.34
2023-01-31T23:58:37.496Z,101019.31
